createdAt,value
2023-03-19T00:01:40.466Z,94808.00
2023-03-19T00:05:40.590Z,94804.00
2023-03-19T00:09:40.752Z,94816.00
2023-03-19T00:13:40.849Z,94810.00
2023-03-19T00:17:40.940Z,94808.00
2023-03-19T00:21:41.092Z,94806.00
2023-03-19T00:25:41.193Z,94812.00
2023-03-19T00:29:41.345Z,94806.00
2023-03-19T00:33:41.488Z,94806.00
2023-03-19T00:37:41.561Z,94812.00
2023-03-19T00:41:41.745Z,94822.00
2023-03-19T00:45:41.873Z,94826.00
2023-03-19T00:49:41.992Z,94812.00
2023-03-19T00:53:42.103Z,94826.00
2023-03-19T00:57:42.232Z,94828.00
2023-03-19T01:01:42.424Z,94826.00
2023-03-19T01:05:42.505Z,94832.00
2023-03-19T01:09:42.661Z,94830.00
2023-03-19T01:13:42.774Z,94830.00
2023-03-19T01:17:42.902Z,94828.00
2023-03-19T01:21:43.154Z,94824.00
2023-03-19T01:25:43.224Z,94824.00
2023-03-19T01:29:43.323Z,94822.00
2023-03-19T01:33:43.474Z,94818.00
2023-03-19T01:37:43.582Z,94820.00
2023-03-19T01:41:43.733Z,94820.00
2023-03-19T01:45:43.883Z,94822.00
2023-03-19T01:49:44.028Z,94824.00
2023-03-19T01:53:44.174Z,94834.00
2023-03-19T01:57:44.324Z,94834.00
2023-03-19T02:01:44.516Z,94824.00
2023-03-19T02:05:44.608Z,94830.00
2023-03-19T02:09:44.783Z,94832.00
2023-03-19T02:13:44.926Z,94828.00
2023-03-19T02:17:45.081Z,94828.00
2023-03-19T02:21:45.234Z,94818.00
2023-03-19T02:25:45.411Z,94830.00
2023-03-19T02:29:45.565Z,94834.00
2023-03-19T02:33:45.786Z,94836.00
2023-03-19T02:37:45.915Z,94836.00
2023-03-19T02:41:47.129Z,94836.00
2023-03-19T02:45:46.253Z,94830.00
2023-03-19T02:49:46.469Z,94832.00
2023-03-19T02:53:46.633Z,94840.00
2023-03-19T02:57:46.816Z,94838.00
2023-03-19T03:01:47.068Z,94840.00
2023-03-19T03:05:47.182Z,94846.00
2023-03-19T03:09:47.353Z,94851.00
2023-03-19T03:13:47.515Z,94853.00
2023-03-19T03:17:47.700Z,94859.00
2023-03-19T03:21:47.878Z,94863.00
2023-03-19T03:25:48.090Z,94867.00
2023-03-19T03:29:48.248Z,94867.00
2023-03-19T03:33:48.484Z,94873.00
2023-03-19T03:37:48.624Z,94875.00
2023-03-19T03:41:48.866Z,94877.00
2023-03-19T03:45:49.181Z,94873.00
2023-03-19T03:49:49.234Z,94869.00
2023-03-19T03:53:49.465Z,94871.00
2023-03-19T03:57:49.676Z,94873.00
2023-03-19T04:01:49.914Z,94883.00
2023-03-19T04:05:50.036Z,94891.00
2023-03-19T04:09:49.938Z,94883.00
2023-03-19T04:13:49.947Z,94883.00
2023-03-19T04:17:49.907Z,94887.00
2023-03-19T04:21:49.872Z,94891.00
2023-03-19T04:25:49.813Z,94896.00
2023-03-19T04:29:49.760Z,94900.00
2023-03-19T04:33:49.719Z,94906.00
2023-03-19T04:37:49.658Z,94908.00
2023-03-19T04:41:49.616Z,94916.00
2023-03-19T04:45:49.597Z,94908.00
2023-03-19T04:49:49.588Z,94922.00
2023-03-19T04:53:49.772Z,94922.00
2023-03-19T04:57:49.994Z,94924.00
2023-03-19T05:01:50.029Z,94928.00
2023-03-19T05:05:49.905Z,94928.00
2023-03-19T05:09:49.865Z,94932.00
2023-03-19T05:13:49.821Z,94930.00
2023-03-19T05:17:49.791Z,94936.00
2023-03-19T05:21:49.702Z,94943.00
2023-03-19T05:25:49.735Z,94943.00
2023-03-19T05:29:49.689Z,94949.00
2023-03-19T05:33:49.570Z,94953.00
2023-03-19T05:37:49.724Z,94959.00
2023-03-19T05:41:49.869Z,94955.00
2023-03-19T05:45:49.853Z,94955.00
2023-03-19T05:49:49.834Z,94959.00
2023-03-19T05:53:49.729Z,94979.00
2023-03-19T05:57:49.709Z,94981.00
2023-03-19T06:01:49.702Z,94983.00
2023-03-19T06:05:49.630Z,94983.00
2023-03-19T06:09:49.660Z,94990.00
2023-03-19T06:13:49.637Z,94996.00
2023-03-19T06:17:49.651Z,95010.00
2023-03-19T06:21:49.644Z,95024.00
2023-03-19T06:25:49.656Z,95012.00
2023-03-19T06:29:49.793Z,95014.00
2023-03-19T06:33:50.080Z,95022.00
2023-03-19T06:37:50.273Z,95026.00
2023-03-19T06:41:50.502Z,95033.00
2023-03-19T06:45:50.743Z,95032.00
2023-03-19T06:49:50.920Z,95024.00
2023-03-19T06:53:51.128Z,95033.00
2023-03-19T06:57:51.338Z,95028.00
2023-03-19T07:01:51.563Z,95035.00
2023-03-19T07:05:51.750Z,95043.00
2023-03-19T07:09:51.957Z,95047.00
2023-03-19T07:13:52.129Z,95051.00
2023-03-19T07:17:52.359Z,95057.00
2023-03-19T07:21:52.583Z,95063.00
2023-03-19T07:25:52.772Z,95063.00
2023-03-19T07:29:52.931Z,95063.00
2023-03-19T07:33:53.087Z,95063.00
2023-03-19T07:37:53.277Z,95065.00
2023-03-19T07:41:53.413Z,95069.00
2023-03-19T07:45:53.622Z,95063.00
2023-03-19T07:49:53.630Z,95063.00
2023-03-19T07:53:53.796Z,95059.00
2023-03-19T07:57:53.862Z,95057.00
2023-03-19T08:01:54.072Z,95051.00
2023-03-19T08:05:54.096Z,95049.00
2023-03-19T08:09:54.115Z,95047.00
2023-03-19T08:13:54.203Z,95043.00
2023-03-19T08:17:54.220Z,95045.00
2023-03-19T08:21:54.303Z,95041.00
2023-03-19T08:25:54.290Z,95043.00
2023-03-19T08:29:54.391Z,95045.00
2023-03-19T08:33:54.375Z,95041.00
2023-03-19T08:37:54.485Z,95041.00
2023-03-19T08:41:54.564Z,95035.00
2023-03-19T08:45:54.759Z,95033.00
2023-03-19T08:49:54.813Z,95033.00
2023-03-19T08:53:55.052Z,95035.00
2023-03-19T08:57:55.238Z,95037.00
2023-03-19T09:01:55.394Z,95045.00
2023-03-19T09:05:55.522Z,95045.00
2023-03-19T09:09:55.675Z,95045.00
2023-03-19T09:13:55.854Z,95047.00
2023-03-19T09:17:55.907Z,95039.00
2023-03-19T09:21:56.166Z,95039.00
2023-03-19T09:25:56.064Z,95039.00
2023-03-19T09:29:55.997Z,95028.00
2023-03-19T09:33:56.008Z,95022.00
2023-03-19T09:37:55.938Z,95018.00
2023-03-19T09:41:55.934Z,95006.00
2023-03-19T09:45:55.894Z,95006.00
2023-03-19T09:49:55.867Z,95002.00
2023-03-19T09:53:55.907Z,95000.00
2023-03-19T09:57:55.791Z,94998.00
2023-03-19T10:01:55.773Z,95000.00
2023-03-19T10:05:55.797Z,94996.00
2023-03-19T10:09:55.968Z,94994.00
2023-03-19T10:13:56.135Z,94990.00
2023-03-19T10:17:56.286Z,94992.00
2023-03-19T10:21:56.405Z,94985.00
2023-03-19T10:25:56.605Z,94981.00
2023-03-19T10:29:56.741Z,94975.00
2023-03-19T10:33:56.917Z,94975.00
2023-03-19T10:37:57.040Z,94973.00
2023-03-19T10:41:57.182Z,94973.00
2023-03-19T10:45:57.354Z,94961.00
2023-03-19T10:49:57.430Z,94959.00
2023-03-19T10:53:57.571Z,94951.00
2023-03-19T10:57:57.690Z,94941.00
2023-03-19T11:01:57.768Z,94941.00
2023-03-19T11:05:57.860Z,94934.00
2023-03-19T11:09:57.948Z,94930.00
2023-03-19T11:13:58.075Z,94926.00
2023-03-19T11:17:58.242Z,94916.00
2023-03-19T11:21:58.287Z,94916.00
2023-03-19T11:25:58.410Z,94904.00
2023-03-19T11:29:58.467Z,94900.00
2023-03-19T11:33:58.543Z,94902.00
2023-03-19T11:37:58.616Z,94900.00
2023-03-19T11:41:58.706Z,94891.00
2023-03-19T11:45:58.769Z,94883.00
2023-03-19T11:49:58.765Z,94883.00
2023-03-19T11:53:58.819Z,94877.00
2023-03-19T11:57:58.849Z,94871.00
2023-03-19T12:01:58.880Z,94859.00
2023-03-19T12:05:58.882Z,94855.00
2023-03-19T12:09:58.869Z,94851.00
2023-03-19T12:13:58.933Z,94846.00
2023-03-19T12:17:58.925Z,94840.00
2023-03-19T12:21:58.932Z,94838.00
2023-03-19T12:25:58.967Z,94834.00
2023-03-19T12:29:58.960Z,94828.00
2023-03-19T12:33:58.926Z,94826.00
2023-03-19T12:37:58.951Z,94826.00
2023-03-19T12:41:58.958Z,94822.00
2023-03-19T12:45:58.946Z,94818.00
2023-03-19T12:49:58.909Z,94814.00
2023-03-19T12:53:58.906Z,94814.00
2023-03-19T12:57:58.926Z,94818.00
2023-03-19T13:01:59.066Z,94810.00
2023-03-19T13:05:58.859Z,94808.00
2023-03-19T13:09:58.822Z,94804.00
2023-03-19T13:13:58.839Z,94804.00
2023-03-19T13:17:58.793Z,94806.00
2023-03-19T13:21:58.794Z,94810.00
2023-03-19T13:25:58.770Z,94810.00
2023-03-19T13:29:58.791Z,94804.00
2023-03-19T13:33:58.795Z,94806.00
2023-03-19T13:37:58.805Z,94810.00
2023-03-19T13:41:58.867Z,94808.00
2023-03-19T13:45:58.859Z,94810.00
2023-03-19T13:49:58.916Z,94808.00
2023-03-19T13:53:58.945Z,94808.00
2023-03-19T13:57:58.990Z,94804.00
2023-03-19T14:01:59.088Z,94802.00
2023-03-19T14:05:59.240Z,94806.00
2023-03-19T14:09:59.175Z,94808.00
2023-03-19T14:13:59.264Z,94804.00
2023-03-19T14:17:59.319Z,94800.00
2023-03-19T14:21:59.389Z,94804.00
2023-03-19T14:25:59.469Z,94804.00
2023-03-19T14:30:01.000Z,94802.00
2023-03-19T14:33:59.646Z,94804.00
2023-03-19T14:37:59.727Z,94804.00
2023-03-19T14:41:59.830Z,94808.00
2023-03-19T14:46:00.028Z,94814.00
2023-03-19T14:50:00.070Z,94812.00
2023-03-19T14:54:00.212Z,94806.00
2023-03-19T14:58:00.339Z,94806.00
2023-03-19T15:02:00.450Z,94808.00
2023-03-19T15:06:00.579Z,94808.00
2023-03-19T15:10:00.732Z,94816.00
2023-03-19T15:14:00.867Z,94816.00
2023-03-19T15:18:04.304Z,94818.00
2023-03-19T15:22:00.879Z,94818.00
2023-03-19T15:26:00.936Z,94822.00
2023-03-19T15:30:12.914Z,94826.00
2023-03-19T15:34:01.875Z,94826.00
2023-03-19T15:38:00.683Z,94828.00
2023-03-19T15:42:02.127Z,94836.00
2023-03-19T15:46:00.756Z,94836.00
2023-03-19T15:50:00.939Z,94836.00
2023-03-19T15:54:01.084Z,94840.00
2023-03-19T15:58:01.253Z,94838.00
2023-03-19T16:02:01.464Z,94842.00
2023-03-19T16:06:01.628Z,94846.00
2023-03-19T16:10:01.909Z,94849.00
2023-03-19T16:14:02.110Z,94865.00
2023-03-19T16:18:02.179Z,94877.00
2023-03-19T16:22:02.366Z,94889.00
2023-03-19T16:26:02.557Z,94893.00
2023-03-19T16:30:02.731Z,94902.00
2023-03-19T16:34:02.697Z,94918.00
2023-03-19T16:38:02.612Z,94922.00
2023-03-19T16:42:02.554Z,94930.00
2023-03-19T16:46:02.504Z,94936.00
2023-03-19T16:50:02.412Z,94943.00
2023-03-19T16:54:02.375Z,94949.00
2023-03-19T16:58:02.372Z,94957.00
2023-03-19T17:02:02.383Z,94959.00
2023-03-19T17:06:04.992Z,94959.00
2023-03-19T17:10:02.205Z,94963.00
2023-03-19T17:14:02.250Z,94963.00
2023-03-19T17:18:02.073Z,94969.00
2023-03-19T17:22:02.016Z,94971.00
2023-03-19T17:26:02.016Z,94986.00
2023-03-19T17:30:01.973Z,94992.00
2023-03-19T17:34:01.974Z,94998.00
2023-03-19T17:38:01.887Z,94996.00
2023-03-19T17:42:01.818Z,95004.00
2023-03-19T17:46:01.953Z,95010.00
2023-03-19T17:50:01.875Z,95014.00
2023-03-19T17:54:01.829Z,95012.00
2023-03-19T17:58:01.798Z,95020.00
2023-03-19T18:02:01.774Z,95024.00
2023-03-19T18:06:01.703Z,95032.00
2023-03-19T18:10:01.617Z,95039.00
2023-03-19T18:14:01.527Z,95039.00
2023-03-19T18:18:01.442Z,95043.00
2023-03-19T18:22:01.350Z,95043.00
2023-03-19T18:26:01.227Z,95045.00
2023-03-19T18:30:01.168Z,95047.00
2023-03-19T18:34:01.078Z,95045.00
2023-03-19T18:38:01.013Z,95051.00
2023-03-19T18:42:00.940Z,95053.00
2023-03-19T18:46:00.996Z,95055.00
2023-03-19T18:50:01.177Z,95059.00
2023-03-19T18:54:01.202Z,95063.00
2023-03-19T18:58:01.262Z,95069.00
2023-03-19T19:02:01.249Z,95077.00
2023-03-19T19:06:01.211Z,95080.00
2023-03-19T19:10:01.261Z,95082.00
2023-03-19T19:14:01.244Z,95082.00
2023-03-19T19:18:01.260Z,95084.00
2023-03-19T19:22:01.290Z,95088.00
2023-03-19T19:26:01.278Z,95090.00
2023-03-19T19:30:01.252Z,95096.00
2023-03-19T19:34:01.198Z,95102.00
2023-03-19T19:38:01.196Z,95102.00
2023-03-19T19:42:01.166Z,95110.00
2023-03-19T19:46:01.123Z,95112.00
2023-03-19T19:50:01.109Z,95116.00
2023-03-19T19:54:01.063Z,95122.00
2023-03-19T19:58:01.029Z,95127.00
2023-03-19T20:02:00.966Z,95133.00
2023-03-19T20:06:00.920Z,95139.00
2023-03-19T20:10:00.879Z,95145.00
2023-03-19T20:14:00.813Z,95149.00
2023-03-19T20:18:00.783Z,95153.00
2023-03-19T20:22:00.741Z,95155.00
2023-03-19T20:26:00.728Z,95157.00
2023-03-19T20:30:00.708Z,95161.00
2023-03-19T20:34:00.657Z,95165.00
2023-03-19T20:38:00.625Z,95165.00
2023-03-19T20:42:00.601Z,95177.00
2023-03-19T20:46:00.591Z,95180.00
2023-03-19T20:50:00.522Z,95184.00
2023-03-19T20:54:00.471Z,95192.00
2023-03-19T20:58:00.494Z,95198.00
2023-03-19T21:02:00.503Z,95204.00
2023-03-19T21:06:00.379Z,95208.00
2023-03-19T21:10:01.017Z,95212.00
2023-03-19T21:14:00.433Z,95210.00
2023-03-19T21:18:00.497Z,95214.00
2023-03-19T21:22:00.474Z,95218.00
2023-03-19T21:26:00.492Z,95222.00
2023-03-19T21:30:00.557Z,95226.00
2023-03-19T21:34:00.550Z,95231.00
2023-03-19T21:38:00.554Z,95235.00
2023-03-19T21:42:00.545Z,95229.00
2023-03-19T21:46:10.912Z,95243.00
2023-03-19T21:50:01.581Z,95241.00
2023-03-19T21:54:00.527Z,95247.00
2023-03-19T21:58:00.484Z,95249.00
2023-03-19T22:02:00.487Z,95253.00
2023-03-19T22:06:00.453Z,95257.00
2023-03-19T22:10:00.512Z,95259.00
2023-03-19T22:14:00.443Z,95261.00
2023-03-19T22:18:00.483Z,95263.00
2023-03-19T22:22:00.492Z,95267.00
2023-03-19T22:26:00.447Z,95265.00
2023-03-19T22:30:00.469Z,95271.00
2023-03-19T22:34:00.434Z,95276.00
2023-03-19T22:38:00.473Z,95278.00
2023-03-19T22:42:00.477Z,95282.00
2023-03-19T22:46:00.527Z,95282.00
2023-03-19T22:50:00.544Z,95284.00
2023-03-19T22:54:00.547Z,95284.00
2023-03-19T22:58:00.573Z,95280.00
2023-03-19T23:02:00.667Z,95282.00
2023-03-19T23:06:00.663Z,95286.00
2023-03-19T23:10:00.676Z,95286.00
2023-03-19T23:14:00.722Z,95290.00
2023-03-19T23:18:00.767Z,95290.00
2023-03-19T23:23:46.259Z,95290.00
2023-03-19T23:27:46.326Z,95288.00
2023-03-19T23:31:46.326Z,95288.00
2023-03-19T23:35:46.370Z,95286.00
2023-03-19T23:39:46.316Z,95286.00
2023-03-19T23:43:46.366Z,95290.00
2023-03-19T23:47:46.355Z,95288.00
2023-03-19T23:51:46.398Z,95292.00
2023-03-19T23:55:46.368Z,95294.00
2023-03-19T23:59:46.376Z,95294.00
